createdAt,value
2024-04-13T13:32:36.085Z,1.25
2024-04-13T13:35:03.058Z,1.75
2024-04-13T13:38:07.595Z,0.95
2024-04-13T13:40:35.439Z,1.10
2024-04-13T13:43:12.135Z,1.20
2024-04-13T13:48:10.396Z,1.70
2024-04-13T13:50:40.203Z,0.90
2024-04-13T13:53:15.267Z,1.30
2024-04-13T13:55:44.543Z,0.95
2024-04-13T13:58:11.374Z,1.35
2024-04-13T14:00:44.347Z,0.95
2024-04-13T14:03:26.538Z,1.55
2024-04-13T14:06:07.795Z,0.95
2024-04-13T14:08:40.375Z,0.85
2024-04-13T14:11:13.306Z,0.77
2024-04-13T14:13:40.896Z,1.30
2024-04-13T14:16:07.719Z,1.20
2024-04-13T14:18:42.359Z,1.48
2024-04-13T14:21:32.835Z,1.23
2024-04-13T14:23:59.568Z,0.88
2024-04-13T14:26:32.394Z,1.10
2024-04-13T14:28:59.312Z,1.58
2024-04-13T14:31:26.096Z,2.40
2024-04-13T14:33:53.364Z,1.15
2024-04-13T14:36:23.877Z,1.30
2024-04-13T14:41:22.663Z,1.20
2024-04-13T14:43:51.363Z,1.25
2024-04-13T14:46:28.784Z,1.08
2024-04-13T14:49:01.527Z,1.38
2024-04-13T14:51:28.415Z,1.15
2024-04-13T14:54:10.449Z,1.08
2024-04-13T14:56:37.195Z,1.20
2024-04-13T14:59:03.965Z,0.80
2024-04-13T15:01:41.875Z,1.35
2024-04-13T16:32:15.329Z,1.23
2024-04-13T16:34:42.360Z,2.13
2024-04-13T16:37:09.031Z,1.05
2024-04-13T16:43:02.884Z,0.90
2024-04-13T16:45:49.231Z,1.27
2024-04-13T16:48:25.561Z,1.02
2024-04-13T16:51:03.903Z,1.00
2024-04-13T16:54:05.584Z,0.88
2024-04-13T17:02:01.247Z,1.27
2024-04-13T17:07:18.251Z,1.48
2024-04-13T17:12:31.473Z,2.20
2024-04-13T17:15:16.673Z,1.55
2024-04-13T17:18:22.277Z,1.17
2024-04-13T17:20:55.582Z,0.90
2024-04-13T17:23:53.367Z,1.30
2024-04-13T17:26:24.964Z,1.25
2024-04-13T17:41:39.630Z,0.90
2024-04-13T17:44:10.297Z,0.80
2024-04-13T17:47:03.187Z,0.90
2024-04-13T17:49:42.157Z,1.17
2024-04-13T17:52:20.758Z,1.05
2024-04-13T17:55:10.916Z,0.98
2024-04-13T17:57:42.997Z,0.80
2024-04-13T18:00:22.071Z,0.82
2024-04-13T18:09:25.321Z,0.88
2024-04-13T18:12:32.571Z,1.10
2024-04-13T18:15:11.174Z,1.30
2024-04-13T18:18:10.696Z,1.08
2024-04-13T18:34:21.296Z,1.40
2024-04-13T18:38:21.855Z,1.20
2024-04-13T18:54:05.507Z,1.23
2024-04-13T18:56:36.953Z,1.40
2024-04-13T18:59:32.916Z,1.00
2024-04-13T19:02:10.035Z,1.35
2024-04-13T19:04:37.724Z,0.90
2024-04-13T19:07:54.596Z,1.35
2024-04-13T19:10:24.495Z,1.05
2024-04-13T19:13:09.127Z,1.38
2024-04-13T19:15:56.568Z,1.48
2024-04-13T19:18:35.291Z,1.30
2024-04-13T19:21:20.512Z,1.13
2024-04-13T19:23:49.814Z,1.23
2024-04-13T19:26:32.157Z,1.80
2024-04-13T19:29:31.442Z,1.45
2024-04-13T19:31:59.255Z,1.55
2024-04-13T19:34:26.950Z,1.30
2024-04-13T19:36:55.889Z,1.27
2024-04-13T19:39:38.720Z,1.65
2024-04-13T19:42:57.492Z,1.75
2024-04-13T19:45:25.168Z,1.10
2024-04-13T19:47:51.990Z,1.98
2024-04-13T19:50:19.221Z,1.25
2024-04-13T19:52:48.330Z,1.40
2024-04-13T19:55:17.358Z,1.60
2024-04-13T19:59:01.466Z,1.35
2024-04-13T20:01:56.436Z,1.40
2024-04-13T20:04:46.220Z,1.08
2024-04-13T20:07:13.224Z,1.50
2024-04-13T20:09:50.371Z,1.65
2024-04-13T20:12:27.559Z,1.50
2024-04-13T20:21:01.179Z,9.48
2024-04-13T20:23:37.021Z,13.95
2024-04-13T20:26:25.695Z,10.20
2024-04-13T20:29:11.655Z,9.45
2024-04-13T20:31:40.784Z,5.65
2024-04-13T20:36:53.093Z,8.52
2024-04-13T20:39:44.761Z,4.35
2024-04-13T20:42:25.376Z,3.10
2024-04-13T20:48:06.837Z,3.22
2024-04-13T20:50:47.522Z,2.17
2024-04-13T20:53:19.789Z,3.53
2024-04-13T20:55:49.364Z,2.83
2024-04-13T20:58:16.884Z,2.80
2024-04-13T21:00:44.004Z,2.67
2024-04-13T21:03:18.412Z,2.83
2024-04-13T21:05:57.436Z,2.40
2024-04-13T21:08:24.141Z,2.20
2024-04-13T21:11:03.514Z,2.50
2024-04-13T21:13:32.571Z,2.50
2024-04-13T21:16:14.677Z,1.77
2024-04-13T21:18:47.465Z,2.10
2024-04-13T21:21:15.031Z,1.90
2024-04-13T21:24:01.847Z,1.90
2024-04-13T21:26:28.690Z,1.67
2024-04-13T21:28:55.505Z,2.05
2024-04-13T21:31:36.093Z,1.25
2024-04-13T21:34:03.044Z,2.00
2024-04-13T21:36:31.405Z,1.60
2024-04-13T21:38:58.404Z,1.70
2024-04-13T21:41:25.605Z,1.70
2024-04-13T21:43:55.896Z,1.77
2024-04-13T21:46:22.633Z,2.00
2024-04-13T21:48:49.532Z,1.80
2024-04-13T21:51:16.420Z,1.60
2024-04-13T21:53:43.229Z,1.70
2024-04-13T21:56:09.988Z,1.75
2024-04-13T21:58:39.052Z,2.33
2024-04-13T22:01:06.015Z,2.03
2024-04-13T22:03:33.104Z,1.85
2024-04-13T22:06:02.942Z,1.40
2024-04-13T22:08:42.455Z,2.10
2024-04-13T22:11:14.146Z,2.10
2024-04-13T22:13:42.941Z,1.73
2024-04-13T22:16:09.788Z,1.83
2024-04-13T22:18:36.876Z,1.98
2024-04-13T22:21:04.558Z,1.88
2024-04-13T22:23:31.298Z,1.60
2024-04-13T22:25:58.088Z,1.70
2024-04-13T22:28:24.854Z,1.60
2024-04-13T22:30:51.880Z,1.50
2024-04-13T22:33:18.831Z,1.83
2024-04-13T22:35:45.692Z,1.90
2024-04-13T22:38:12.506Z,1.80
2024-04-13T22:40:41.669Z,2.33
2024-04-13T22:43:11.483Z,1.98
2024-04-13T22:45:38.308Z,1.85
2024-04-13T22:48:06.854Z,1.85
2024-04-13T22:50:33.687Z,1.92
2024-04-13T22:53:00.474Z,2.28
2024-04-13T22:55:27.240Z,2.00
2024-04-13T22:57:54.323Z,1.98
2024-04-13T23:00:22.139Z,2.17
2024-04-13T23:02:48.915Z,1.77
2024-04-13T23:05:17.446Z,1.40
2024-04-13T23:07:44.232Z,1.63
2024-04-13T23:10:11.750Z,1.60
2024-04-13T23:13:00.973Z,1.88
2024-04-13T23:15:26.223Z,1.50
2024-04-13T23:17:53.407Z,2.00
2024-04-13T23:20:31.088Z,1.98
2024-04-13T23:22:58.243Z,1.85
2024-04-13T23:25:45.186Z,2.17
2024-04-13T23:30:52.587Z,2.22
2024-04-13T23:33:19.479Z,1.83
2024-04-13T23:35:57.762Z,1.48
2024-04-13T23:38:29.884Z,1.73
2024-04-13T23:40:56.976Z,1.60
2024-04-13T23:43:35.765Z,1.20
2024-04-13T23:46:08.487Z,1.83
2024-04-13T23:48:35.359Z,1.40
2024-04-13T23:53:45.759Z,1.23
2024-04-13T23:56:28.334Z,1.48
2024-04-13T23:58:55.756Z,1.50
